Time;durP1;ratioP1;P1;durP2;ratioP2;P2;SDS_P1;SDS_P2;PMS_P1;PMS_P2;Temp;Humidity;BMP_temperature;BMP_pressure;BME280_temperature;BME280_humidity;BME280_pressure;Samples;Min_cycle;Max_cycle;Signal;HPM_P1;HPM_P2
2022/12/01 00:02:08;;;;;;;10.85;8.32;;;19.60;42.80;;;;;;5115655;28;20100;-11
2022/12/01 00:04:34;;;;;;;9.23;7.63;;;19.70;42.90;;;;;;5115511;28;20047;-10
2022/12/01 00:06:59;;;;;;;10.07;8.25;;;19.70;42.90;;;;;;5115112;28;20435;-10
2022/12/01 00:12:09;;;;;;;9.27;7.75;;;19.70;43.00;;;;;;5114908;28;20415;-10
2022/12/01 00:14:35;;;;;;;10.85;7.03;;;19.70;42.90;;;;;;5114684;28;20059;-10
2022/12/01 00:17:01;;;;;;;10.02;7.80;;;19.70;42.90;;;;;;5114983;28;20104;-11
2022/12/01 00:19:27;;;;;;;9.70;7.57;;;19.70;42.80;;;;;;5114487;28;20056;-10
2022/12/01 00:21:53;;;;;;;11.30;8.35;;;19.70;42.80;;;;;;5114818;28;20450;-10
2022/12/01 00:24:18;;;;;;;8.48;7.00;;;19.70;42.80;;;;;;5114969;28;20035;-11
2022/12/01 00:26:44;;;;;;;10.02;8.10;;;19.70;42.80;;;;;;5114647;28;20106;-11
2022/12/01 00:29:10;;;;;;;8.55;6.88;;;19.70;42.80;;;;;;5115183;28;20051;-11
2022/12/01 00:31:36;;;;;;;9.13;7.18;;;19.70;42.80;;;;;;5114602;28;20051;-10
2022/12/01 00:34:02;;;;;;;8.98;7.65;;;19.70;42.80;;;;;;5114626;28;20445;-10
2022/12/01 00:36:28;;;;;;;9.73;7.50;;;19.70;42.80;;;;;;5114480;28;20059;-11
2022/12/01 00:38:55;;;;;;;8.73;7.22;;;19.70;42.90;;;;;;5114520;28;20070;-11
2022/12/01 00:41:21;;;;;;;9.55;7.15;;;19.70;42.80;;;;;;5114564;28;20083;-11
2022/12/01 00:43:49;;;;;;;10.23;7.65;;;19.70;42.90;;;;;;5114392;28;20057;-10
2022/12/01 00:46:14;;;;;;;8.90;7.28;;;19.70;42.90;;;;;;5114386;28;20548;-10
2022/12/01 00:48:40;;;;;;;9.40;7.55;;;19.70;42.90;;;;;;5114293;28;20043;-10
2022/12/01 00:51:06;;;;;;;9.50;7.25;;;19.70;42.90;;;;;;5114395;28;20097;-11
2022/12/01 00:53:31;;;;;;;9.27;7.20;;;19.60;42.90;;;;;;5114165;28;20054;-10
2022/12/01 00:55:57;;;;;;;9.88;7.55;;;19.70;42.90;;;;;;5114556;28;20051;-11
2022/12/01 00:58:24;;;;;;;8.40;7.18;;;19.70;42.90;;;;;;5114257;28;20064;-11
2022/12/01 01:00:57;;;;;;;8.43;7.00;;;19.60;42.90;;;;;;5114588;28;20058;-11
2022/12/01 01:03:22;;;;;;;8.60;7.43;;;19.70;42.90;;;;;;5114412;28;20052;-11
2022/12/01 01:05:48;;;;;;;9.70;7.65;;;19.60;42.90;;;;;;5114400;28;20048;-10
2022/12/01 01:08:14;;;;;;;9.07;7.50;;;19.60;42.90;;;;;;5114242;28;20078;-11
2022/12/01 01:10:41;;;;;;;8.25;6.82;;;19.70;42.90;;;;;;5114272;28;20055;-10
2022/12/01 01:13:07;;;;;;;9.15;7.10;;;19.70;42.90;;;;;;5114284;28;20483;-10
2022/12/01 01:15:33;;;;;;;9.70;7.55;;;19.70;42.90;;;;;;5113918;28;20105;-10
2022/12/01 01:18:00;;;;;;;8.70;7.40;;;19.70;42.80;;;;;;5114447;28;20047;-10
2022/12/01 01:20:25;;;;;;;10.07;7.20;;;19.70;42.90;;;;;;5113895;28;20087;-10
2022/12/01 01:22:52;;;;;;;9.02;7.20;;;19.70;42.80;;;;;;5113766;28;20529;-11
2022/12/01 01:25:21;;;;;;;8.65;7.20;;;19.70;42.80;;;;;;5112954;28;20063;-10
2022/12/01 01:27:47;;;;;;;9.70;7.25;;;19.70;42.80;;;;;;5113730;28;20519;-10
2022/12/01 01:30:13;;;;;;;9.10;6.82;;;19.70;42.80;;;;;;5113587;28;20056;-10
2022/12/01 01:32:39;;;;;;;10.32;7.63;;;19.70;42.80;;;;;;5113664;28;20134;-11
2022/12/01 01:35:05;;;;;;;8.18;6.97;;;19.70;42.80;;;;;;5113443;28;20098;-11
2022/12/01 01:37:31;;;;;;;9.07;7.05;;;19.70;42.80;;;;;;5113560;28;20047;-11
2022/12/01 01:39:56;;;;;;;8.13;7.22;;;19.60;42.80;;;;;;5113497;28;20051;-10
2022/12/01 01:42:22;;;;;;;9.40;7.57;;;19.70;42.80;;;;;;5113494;28;20048;-10
2022/12/01 01:44:49;;;;;;;8.48;6.90;;;19.70;42.80;;;;;;5113447;28;20043;-10
2022/12/01 01:47:34;;;;;;;8.52;6.88;;;19.60;42.80;;;;;;5113499;28;20063;-10
2022/12/01 01:50:13;;;;;;;9.30;7.25;;;19.60;42.80;;;;;;5113191;28;20047;-11
2022/12/01 01:52:44;;;;;;;9.40;7.55;;;19.60;42.90;;;;;;5113772;28;20070;-10
2022/12/01 01:55:11;;;;;;;9.32;7.57;;;19.60;42.90;;;;;;5113589;28;20075;-10
2022/12/01 01:57:38;;;;;;;10.68;7.93;;;19.60;42.90;;;;;;5113243;28;20055;-10
2022/12/01 02:00:13;;;;;;;8.93;6.65;;;19.60;42.80;;;;;;5113167;28;20103;-10
2022/12/01 02:02:44;;;;;;;8.50;6.72;;;19.60;42.80;;;;;;5113519;28;20048;-10
2022/12/01 02:05:31;;;;;;;8.90;7.18;;;19.60;42.80;;;;;;5113563;28;20383;-10
2022/12/01 02:07:58;;;;;;;8.95;7.15;;;19.70;42.90;;;;;;5112964;28;20526;-10
2022/12/01 02:10:44;;;;;;;7.97;6.80;;;19.60;42.80;;;;;;5113093;28;20066;-11
2022/12/01 02:13:17;;;;;;;8.80;7.13;;;19.60;42.80;;;;;;5113098;28;20499;-10
2022/12/01 02:15:54;;;;;;;9.93;7.10;;;19.70;42.90;;;;;;5113088;28;20047;-10
2022/12/01 02:18:56;;;;;;;8.45;6.88;;;19.60;42.80;;;;;;5112536;28;20533;-10
2022/12/01 02:21:41;;;;;;;8.07;6.38;;;19.70;42.90;;;;;;5095262;28;20047;-10
2022/12/01 02:24:25;;;;;;;9.48;7.07;;;19.70;42.90;;;;;;5113074;28;20396;-10
2022/12/01 02:27:12;;;;;;;9.63;7.05;;;19.60;42.80;;;;;;5113292;28;20047;-10
2022/12/01 02:30:03;;;;;;;8.85;6.95;;;19.70;42.80;;;;;;5112882;28;20056;-10
2022/12/01 02:32:46;;;;;;;8.05;6.57;;;19.60;42.90;;;;;;5112877;28;20047;-10
2022/12/01 02:35:31;;;;;;;7.47;6.45;;;19.60;42.80;;;;;;5112782;28;20047;-10
2022/12/01 02:38:10;;;;;;;7.82;6.35;;;19.60;42.90;;;;;;5116309;28;20051;-11
2022/12/01 02:41:09;;;;;;;9.63;7.35;;;19.60;42.90;;;;;;5116400;28;20051;-10
2022/12/01 07:09:27;;;;;;;21.85;9.93;;;19.00;43.60;;;;;;5172185;27;20399;-9
2022/12/01 07:11:53;;;;;;;13.00;10.40;;;19.30;43.70;;;;;;5150373;27;20071;-9
2022/12/01 07:14:22;;;;;;;16.73;11.23;;;19.40;43.50;;;;;;5150502;27;20058;-9
2022/12/01 07:16:48;;;;;;;18.95;11.32;;;19.40;43.40;;;;;;5150200;27;20054;-10
2022/12/01 07:19:14;;;;;;;18.23;11.38;;;19.50;43.80;;;;;;5150501;27;20555;-9
2022/12/01 07:21:40;;;;;;;19.00;10.70;;;19.50;43.20;;;;;;5150539;27;20051;-10
2022/12/01 07:24:06;;;;;;;16.67;11.45;;;19.50;43.00;;;;;;5150366;27;20078;-9
2022/12/01 07:26:31;;;;;;;18.63;11.85;;;19.60;43.00;;;;;;5150578;27;20042;-10
2022/12/01 07:28:57;;;;;;;20.02;11.68;;;19.60;43.00;;;;;;5150129;27;20137;-9
2022/12/01 07:31:23;;;;;;;17.95;11.23;;;19.60;42.90;;;;;;5150264;27;20060;-9
2022/12/01 07:33:48;;;;;;;15.40;11.48;;;19.60;42.90;;;;;;5150858;27;20152;-11
2022/12/01 07:36:14;;;;;;;16.90;11.05;;;19.70;42.80;;;;;;5148214;27;20100;-10
2022/12/01 07:38:40;;;;;;;17.70;11.23;;;19.70;42.70;;;;;;5149962;27;20055;-10
2022/12/01 07:41:11;;;;;;;16.92;10.75;;;19.70;42.70;;;;;;5150140;27;20070;-9
2022/12/01 07:43:37;;;;;;;16.02;11.43;;;19.80;42.70;;;;;;5150356;27;20436;-9
2022/12/01 07:46:15;;;;;;;19.00;11.20;;;19.80;42.70;;;;;;5150126;27;20047;-9
2022/12/01 07:48:41;;;;;;;17.20;11.90;;;19.70;42.70;;;;;;5149771;27;20057;-9
2022/12/01 07:51:09;;;;;;;15.38;10.90;;;19.70;42.80;;;;;;5150032;27;20081;-9
2022/12/01 07:53:34;;;;;;;15.10;12.48;;;19.70;42.80;;;;;;5149942;27;20047;-9
2022/12/01 07:56:00;;;;;;;16.10;12.02;;;19.70;42.80;;;;;;5150166;27;20095;-9
2022/12/01 07:58:26;;;;;;;17.95;11.48;;;19.70;43.30;;;;;;5149440;27;21597;-10
2022/12/01 08:00:53;;;;;;;19.58;11.38;;;19.70;42.80;;;;;;5149692;27;20145;-9
2022/12/01 08:03:19;;;;;;;18.35;12.20;;;19.70;42.80;;;;;;5149739;27;20066;-9
2022/12/01 08:05:45;;;;;;;16.10;11.73;;;19.70;42.80;;;;;;5149619;27;20047;-9
2022/12/01 08:08:10;;;;;;;17.55;12.95;;;19.70;42.80;;;;;;5149593;27;20058;-9
2022/12/01 08:10:36;;;;;;;18.38;12.65;;;19.70;42.80;;;;;;5135294;27;20043;-9
2022/12/01 08:13:02;;;;;;;19.58;13.18;;;19.70;42.80;;;;;;5136046;27;20487;-9
2022/12/01 08:15:28;;;;;;;18.33;13.38;;;19.70;42.80;;;;;;5135975;27;20113;-10
2022/12/01 08:17:54;;;;;;;15.82;12.55;;;19.70;42.90;;;;;;5135414;27;20047;-10
2022/12/01 08:20:20;;;;;;;20.52;13.43;;;19.70;42.80;;;;;;5136087;27;20080;-9
2022/12/01 08:22:46;;;;;;;14.95;11.60;;;19.70;42.80;;;;;;5135545;27;20050;-9
2022/12/01 08:25:11;;;;;;;18.17;13.55;;;19.70;42.80;;;;;;5135855;27;20069;-9
2022/12/01 08:27:37;;;;;;;15.60;11.95;;;19.70;42.80;;;;;;5135650;27;20047;-9
2022/12/01 08:30:03;;;;;;;17.35;12.60;;;19.70;43.30;;;;;;5135449;27;20063;-10
2022/12/01 08:32:29;;;;;;;17.05;13.23;;;19.70;42.70;;;;;;5135832;27;20078;-9
2022/12/01 08:34:55;;;;;;;17.58;12.07;;;19.80;42.80;;;;;;5135382;27;20078;-9
2022/12/01 08:37:21;;;;;;;18.42;13.32;;;19.70;42.70;;;;;;5135508;27;20070;-10
2022/12/01 08:39:47;;;;;;;16.08;12.35;;;19.70;42.80;;;;;;5134864;27;20043;-9
2022/12/01 08:42:12;;;;;;;17.70;12.82;;;19.70;42.70;;;;;;5135165;27;20398;-9
2022/12/01 08:44:38;;;;;;;17.42;12.73;;;19.80;42.70;;;;;;5135552;27;20055;-9
2022/12/01 08:47:04;;;;;;;17.75;13.15;;;19.70;42.70;;;;;;5134947;27;20047;-10
2022/12/01 08:49:30;;;;;;;18.13;13.07;;;19.70;42.70;;;;;;5135179;27;20107;-9
2022/12/01 08:51:56;;;;;;;18.63;13.50;;;19.70;42.80;;;;;;5135119;27;20047;-9
2022/12/01 08:54:22;;;;;;;21.20;13.38;;;19.70;42.70;;;;;;5135064;27;20100;-12
2022/12/01 08:56:48;;;;;;;17.27;13.52;;;19.70;42.70;;;;;;5135364;27;20107;-10
2022/12/01 08:59:14;;;;;;;19.52;13.52;;;19.70;42.70;;;;;;5134967;27;20077;-10
2022/12/01 09:01:52;;;;;;;18.67;13.50;;;19.80;42.70;;;;;;5134928;27;20047;-10
2022/12/01 09:04:20;;;;;;;15.80;13.15;;;19.80;42.80;;;;;;5134876;27;20470;-10
2022/12/01 09:06:47;;;;;;;21.05;14.55;;;19.80;42.80;;;;;;5134850;27;20047;-10
2022/12/01 09:09:16;;;;;;;17.65;13.43;;;19.70;42.80;;;;;;5134959;27;20062;-10
2022/12/01 09:11:42;;;;;;;17.67;14.05;;;19.70;43.00;;;;;;5134748;27;20078;-10
2022/12/01 09:14:10;;;;;;;18.25;13.25;;;19.70;43.00;;;;;;5134810;27;20058;-10
2022/12/01 09:16:37;;;;;;;17.40;13.20;;;19.70;43.10;;;;;;5134605;27;20047;-10
2022/12/01 09:19:03;;;;;;;21.67;14.45;;;19.80;43.20;;;;;;5134725;27;20495;-10
2022/12/01 09:21:32;;;;;;;16.92;13.88;;;19.80;43.10;;;;;;5133694;27;20078;-10
2022/12/01 09:23:59;;;;;;;23.77;15.95;;;19.80;43.00;;;;;;5134981;27;20489;-10
2022/12/01 09:26:25;;;;;;;21.75;15.20;;;19.80;43.00;;;;;;5134653;27;20119;-10
2022/12/01 09:28:53;;;;;;;21.63;15.35;;;19.90;43.10;;;;;;5116087;27;20107;-11
2022/12/01 09:31:22;;;;;;;21.23;15.73;;;19.90;43.10;;;;;;5134505;27;20080;-10
2022/12/01 09:33:53;;;;;;;28.23;15.50;;;19.90;43.10;;;;;;5134475;27;20509;-10
2022/12/01 09:36:19;;;;;;;;;;;19.90;43.10;;;;;;5134893;27;20096;-10
2022/12/01 09:38:45;;;;;;;25.88;15.13;;;20.00;43.10;;;;;;5134247;27;19919;-10
2022/12/01 09:41:16;;;;;;;21.73;16.70;;;20.00;43.20;;;;;;5134196;27;20075;-11
2022/12/01 09:43:49;;;;;;;22.83;14.70;;;20.00;43.30;;;;;;5134646;27;20043;-10
2022/12/01 09:46:23;;;;;;;21.90;15.00;;;20.00;43.70;;;;;;5134357;27;20083;-10
2022/12/01 09:48:52;;;;;;;22.60;15.60;;;20.00;43.30;;;;;;5134254;27;20488;-10
2022/12/01 09:51:24;;;;;;;22.02;15.73;;;19.90;43.40;;;;;;5134242;27;20452;-10
2022/12/01 09:53:53;;;;;;;22.77;14.57;;;19.90;43.50;;;;;;5134168;27;20111;-10
2022/12/01 09:56:24;;;;;;;20.77;15.07;;;19.90;43.50;;;;;;5133981;27;20050;-10
2022/12/01 09:58:55;;;;;;;23.53;16.00;;;19.90;43.40;;;;;;5134071;27;20078;-10
2022/12/01 10:01:29;;;;;;;24.63;16.38;;;19.90;43.40;;;;;;5132983;27;20260;-11
2022/12/01 10:04:01;;;;;;;22.13;15.82;;;19.90;43.40;;;;;;5132485;27;20058;-11
2022/12/01 10:07:01;;;;;;;22.23;14.45;;;19.80;43.40;;;;;;5132750;27;20039;-10
2022/12/01 10:09:44;;;;;;;21.33;16.08;;;19.80;43.40;;;;;;5078085;27;20495;-11
2022/12/01 10:12:14;;;;;;;22.17;15.70;;;19.80;43.40;;;;;;5133726;27;20484;-11
2022/12/01 10:14:46;;;;;;;21.75;15.02;;;19.80;43.50;;;;;;5131358;27;20452;-12
2022/12/01 10:17:23;;;;;;;22.48;16.15;;;19.80;43.40;;;;;;5131976;27;20047;-11
2022/12/01 10:20:19;;;;;;;21.92;15.85;;;19.80;43.40;;;;;;5132162;27;20043;-12
2022/12/01 10:22:45;;;;;;;22.23;16.05;;;19.80;43.40;;;;;;5132838;27;20479;-11
2022/12/01 10:25:19;;;;;;;21.13;15.77;;;19.80;43.30;;;;;;5132777;27;20043;-11
2022/12/01 10:28:15;;;;;;;21.08;14.75;;;19.80;43.30;;;;;;5114262;28;20395;-11
2022/12/01 10:30:50;;;;;;;20.88;15.48;;;19.80;43.30;;;;;;5133767;27;20101;-11
2022/12/01 10:33:25;;;;;;;24.88;16.65;;;19.80;43.20;;;;;;5133281;27;20444;-11
2022/12/01 10:35:52;;;;;;;22.75;14.10;;;19.80;43.20;;;;;;5133599;27;20064;-11
2022/12/01 10:38:29;;;;;;;22.10;15.13;;;19.80;43.20;;;;;;5133488;27;20058;-10
2022/12/01 10:40:59;;;;;;;20.42;14.63;;;19.80;43.20;;;;;;5134135;27;20502;-10
2022/12/01 10:43:33;;;;;;;20.70;14.75;;;19.80;43.20;;;;;;5133913;27;20054;-10
2022/12/01 10:46:04;;;;;;;21.15;15.27;;;19.80;43.10;;;;;;5133391;27;20051;-11
2022/12/01 10:48:30;;;;;;;22.38;15.63;;;19.80;43.10;;;;;;5133652;27;20146;-11
2022/12/01 10:51:14;;;;;;;22.25;15.32;;;19.80;43.10;;;;;;5133274;27;20456;-11
2022/12/01 10:53:40;;;;;;;19.33;14.40;;;19.80;43.10;;;;;;5133464;27;20054;-10
2022/12/01 10:56:12;;;;;;;19.60;14.70;;;19.80;43.10;;;;;;5133390;27;20047;-10
2022/12/01 10:59:00;;;;;;;21.35;16.10;;;19.80;43.10;;;;;;5133278;27;20047;-10
2022/12/01 11:01:30;;;;;;;19.92;14.55;;;19.80;43.10;;;;;;5133192;27;20096;-10
2022/12/01 11:04:05;;;;;;;20.25;14.43;;;19.80;43.10;;;;;;5133311;27;20537;-11
2022/12/01 11:06:32;;;;;;;22.48;16.25;;;19.80;43.00;;;;;;5133060;27;20103;-10
2022/12/01 11:09:16;;;;;;;20.83;14.70;;;19.90;42.90;;;;;;5132809;27;20051;-10
2022/12/01 11:11:42;;;;;;;21.00;15.20;;;19.90;42.80;;;;;;5132454;27;20047;-11
2022/12/01 11:14:21;;;;;;;21.08;14.65;;;20.00;42.70;;;;;;5131183;27;20059;-12
2022/12/01 11:16:50;;;;;;;20.77;14.88;;;20.00;42.70;;;;;;5131494;27;20054;-11
2022/12/01 11:19:33;;;;;;;18.83;13.40;;;20.00;42.60;;;;;;5132591;27;20055;-10
2022/12/01 11:22:02;;;;;;;20.60;14.73;;;20.00;42.40;;;;;;5132625;28;20399;-10
2022/12/01 11:24:55;;;;;;;19.67;14.18;;;20.10;42.30;;;;;;5132668;27;20127;-10
2022/12/01 11:27:24;;;;;;;18.63;14.02;;;20.10;42.30;;;;;;5132306;27;20039;-11
2022/12/01 11:29:55;;;;;;;19.83;14.10;;;20.10;42.20;;;;;;5131325;27;20518;-11
2022/12/01 11:32:24;;;;;;;;;;;20.10;42.20;;;;;;5132210;27;20062;-10
2022/12/01 11:34:58;;;;;;;19.63;13.90;;;20.10;42.20;;;;;;5133101;27;19915;-10
2022/12/01 11:37:34;;;;;;;19.05;13.73;;;20.20;42.20;;;;;;5132946;27;20043;-10
2022/12/01 11:40:25;;;;;;;18.05;14.10;;;20.20;42.20;;;;;;5132673;28;20057;-10
2022/12/01 11:42:55;;;;;;;17.52;13.70;;;20.20;42.30;;;;;;5131632;27;20743;-11
2022/12/01 11:45:20;;;;;;;16.95;12.60;;;20.20;42.30;;;;;;5133702;27;20465;-10
2022/12/01 11:47:59;;;;;;;17.80;13.60;;;20.20;42.30;;;;;;5136141;27;20039;-10
2022/12/01 11:50:28;;;;;;;19.35;13.60;;;20.20;42.30;;;;;;5135919;27;20043;-10
2022/12/01 11:52:54;;;;;;;17.63;13.70;;;20.20;42.30;;;;;;5135976;27;20061;-11
2022/12/01 11:55:26;;;;;;;17.25;12.00;;;20.20;42.30;;;;;;5135956;27;20059;-10
2022/12/01 11:57:56;;;;;;;18.25;13.57;;;20.20;42.30;;;;;;5135943;27;20043;-10
2022/12/01 12:00:25;;;;;;;17.67;13.00;;;20.20;42.30;;;;;;5135784;27;20067;-10
2022/12/01 12:03:10;;;;;;;18.30;12.77;;;20.20;42.30;;;;;;5135444;27;20047;-11
2022/12/01 12:05:54;;;;;;;17.60;13.45;;;20.20;42.30;;;;;;5135932;27;20047;-11
2022/12/01 12:08:41;;;;;;;16.40;12.82;;;20.20;42.40;;;;;;5135858;27;20035;-10
2022/12/01 12:11:17;;;;;;;18.65;14.18;;;20.20;42.50;;;;;;5135687;27;20055;-11
2022/12/01 12:14:16;;;;;;;19.77;12.95;;;20.20;42.50;;;;;;5136023;27;20149;-10
2022/12/01 12:17:07;;;;;;;18.30;12.57;;;20.20;42.60;;;;;;5135613;27;20058;-11
2022/12/01 12:19:33;;;;;;;18.35;12.52;;;20.20;42.60;;;;;;5135360;27;20479;-11
2022/12/01 12:22:14;;;;;;;16.83;12.23;;;20.20;42.60;;;;;;5135547;27;20050;-10
2022/12/01 12:24:43;;;;;;;17.95;13.32;;;20.20;42.60;;;;;;5135394;27;20157;-10
2022/12/01 12:27:30;;;;;;;18.58;12.85;;;20.20;42.60;;;;;;5135223;27;20442;-10
2022/12/01 12:30:19;;;;;;;19.17;12.13;;;20.20;42.50;;;;;;5135112;27;20051;-10
2022/12/01 12:32:54;;;;;;;17.48;12.27;;;20.20;42.50;;;;;;5135175;27;20480;-10
2022/12/01 12:36:01;;;;;;;16.02;11.82;;;20.20;42.60;;;;;;5135238;27;20142;-10
2022/12/01 12:38:46;;;;;;;18.10;12.73;;;20.20;43.10;;;;;;5135104;27;20192;-11
2022/12/01 12:41:35;;;;;;;16.05;11.55;;;20.20;42.50;;;;;;5134851;27;20050;-11
2022/12/01 12:44:11;;;;;;;16.90;12.05;;;20.20;42.50;;;;;;5121508;27;20074;-11
2022/12/01 12:46:59;;;;;;;15.45;12.05;;;20.20;42.60;;;;;;5135304;27;20051;-11
2022/12/01 12:49:54;;;;;;;17.55;12.43;;;20.20;42.60;;;;;;5134924;27;20058;-11
2022/12/01 12:52:32;;;;;;;14.93;12.15;;;20.20;42.60;;;;;;5135117;27;20047;-11
2022/12/01 12:55:18;;;;;;;15.48;11.95;;;20.20;42.70;;;;;;5135127;27;20055;-11
2022/12/01 12:57:56;;;;;;;17.60;12.55;;;20.20;42.80;;;;;;5134697;27;20479;-11
2022/12/01 13:00:28;;;;;;;17.00;12.05;;;20.20;42.80;;;;;;5135463;27;20054;-11
2022/12/01 13:03:09;;;;;;;17.23;12.50;;;20.20;42.90;;;;;;5135133;27;20088;-11
2022/12/01 13:05:49;;;;;;;15.95;11.90;;;20.20;42.80;;;;;;5135090;27;20051;-11
2022/12/01 13:08:26;;;;;;;16.05;11.65;;;20.20;42.70;;;;;;5135341;27;20043;-11
2022/12/01 13:11:05;;;;;;;16.80;11.95;;;20.20;42.70;;;;;;5134822;27;20078;-12
2022/12/01 13:13:41;;;;;;;17.17;11.55;;;20.20;42.70;;;;;;5133058;27;20058;-12
2022/12/01 13:16:21;;;;;;;16.10;11.40;;;20.20;42.70;;;;;;5133427;27;20055;-11
2022/12/01 13:19:11;;;;;;;14.67;11.67;;;20.20;42.70;;;;;;5133222;27;20046;-12
2022/12/01 13:21:43;;;;;;;13.77;11.10;;;20.20;42.70;;;;;;5132455;27;20047;-12
2022/12/01 13:24:13;;;;;;;17.65;10.98;;;20.20;42.60;;;;;;5133084;27;20062;-12
2022/12/01 13:26:42;;;;;;;17.23;11.15;;;20.20;42.60;;;;;;5133446;27;20059;-11
2022/12/01 13:29:15;;;;;;;17.30;11.43;;;20.20;42.60;;;;;;5133652;27;20136;-11
2022/12/01 13:31:48;;;;;;;13.98;10.65;;;20.20;42.60;;;;;;5134218;27;20062;-11
2022/12/01 13:34:39;;;;;;;12.63;10.35;;;20.20;42.60;;;;;;5134576;27;20047;-11
2022/12/01 13:37:07;;;;;;;15.15;11.20;;;20.20;42.60;;;;;;5134644;27;20047;-11
2022/12/01 13:39:36;;;;;;;16.17;11.60;;;20.20;42.60;;;;;;5134292;27;20051;-11
2022/12/01 13:42:17;;;;;;;14.57;11.20;;;20.20;42.60;;;;;;5134488;27;20045;-11
2022/12/01 13:44:51;;;;;;;14.85;11.40;;;20.20;42.70;;;;;;5134488;27;20376;-11
2022/12/01 13:47:22;;;;;;;14.05;10.60;;;20.20;42.70;;;;;;5134346;27;20069;-11
2022/12/01 13:49:51;;;;;;;14.93;11.07;;;20.10;42.70;;;;;;5134342;27;20043;-11
2022/12/01 13:52:27;;;;;;;17.05;11.45;;;20.20;42.60;;;;;;5134656;27;20039;-11
2022/12/01 13:55:08;;;;;;;13.00;10.57;;;20.20;42.60;;;;;;5134353;27;20100;-11
2022/12/01 13:57:48;;;;;;;17.20;11.60;;;20.20;42.50;;;;;;5134329;27;20085;-11
2022/12/01 14:00:41;;;;;;;14.80;10.80;;;20.20;42.50;;;;;;5133649;27;20440;-11
2022/12/01 14:03:18;;;;;;;14.15;10.05;;;20.20;42.50;;;;;;5130332;27;20505;-11
2022/12/01 14:05:52;;;;;;;17.23;11.13;;;20.20;42.40;;;;;;5134152;27;20054;-11
2022/12/01 14:08:25;;;;;;;15.63;10.70;;;20.20;42.30;;;;;;5133792;27;20404;-11
2022/12/01 14:11:17;;;;;;;13.23;9.98;;;20.20;42.30;;;;;;5134102;27;20043;-11
2022/12/01 14:14:08;;;;;;;15.82;10.50;;;20.20;42.90;;;;;;5134002;27;20074;-11
2022/12/01 14:16:50;;;;;;;16.35;11.10;;;20.20;42.30;;;;;;5133958;27;20055;-11
2022/12/01 14:19:43;;;;;;;14.88;10.52;;;20.30;42.40;;;;;;5115401;28;20499;-11
2022/12/01 14:22:38;;;;;;;13.50;9.95;;;20.30;42.30;;;;;;5133656;27;20142;-11
2022/12/01 14:25:19;;;;;;;12.60;9.88;;;20.30;42.30;;;;;;5133708;27;20057;-11
2022/12/01 14:27:46;;;;;;;14.82;11.15;;;20.30;42.40;;;;;;5133416;27;20062;-11
2022/12/01 14:30:40;;;;;;;15.70;11.20;;;20.20;42.30;;;;;;5133678;27;20126;-11
2022/12/01 14:33:44;;;;;;;15.20;11.15;;;20.20;42.40;;;;;;5133700;27;20050;-11
2022/12/01 14:36:24;;;;;;;13.32;10.52;;;20.20;42.30;;;;;;5133765;27;20054;-11
2022/12/01 14:38:59;;;;;;;13.88;9.77;;;20.20;42.30;;;;;;5133442;27;20051;-11
2022/12/01 14:41:26;;;;;;;13.48;9.70;;;20.20;42.30;;;;;;5133573;27;20043;-11
2022/12/01 14:44:03;;;;;;;15.38;10.50;;;20.20;42.30;;;;;;5134185;27;20043;-11
2022/12/01 14:47:04;;;;;;;14.02;10.63;;;20.20;42.30;;;;;;5133570;27;20055;-11
2022/12/01 14:49:41;;;;;;;13.90;9.98;;;20.20;42.40;;;;;;5133546;27;20047;-11
2022/12/01 14:52:28;;;;;;;12.52;9.48;;;20.20;42.40;;;;;;5133551;27;20130;-11
2022/12/01 14:54:57;;;;;;;12.75;10.20;;;20.20;42.40;;;;;;5133536;27;20054;-11
2022/12/01 14:57:29;;;;;;;12.88;9.85;;;20.20;42.40;;;;;;5133317;27;20051;-11
2022/12/01 15:00:20;;;;;;;13.45;10.35;;;20.20;42.40;;;;;;5133253;27;20487;-11
2022/12/01 15:02:57;;;;;;;14.30;10.60;;;20.20;42.40;;;;;;5133555;27;20104;-11
2022/12/01 15:05:27;;;;;;;13.27;9.93;;;20.20;42.40;;;;;;5133339;27;20134;-11
2022/12/01 15:07:58;;;;;;;13.95;9.95;;;20.20;42.40;;;;;;5133259;27;20054;-11
2022/12/01 15:10:33;;;;;;;12.70;9.15;;;20.20;42.40;;;;;;5133164;27;20146;-11
2022/12/01 15:13:32;;;;;;;11.68;9.93;;;20.20;42.40;;;;;;5133435;27;20116;-11
2022/12/01 15:16:11;;;;;;;13.05;9.93;;;20.30;42.40;;;;;;5133541;27;20135;-11
2022/12/01 15:18:38;;;;;;;14.95;10.45;;;20.30;42.40;;;;;;5133489;27;20500;-11
2022/12/01 15:21:28;;;;;;;12.57;10.07;;;20.30;42.40;;;;;;5137073;27;20043;-11
2022/12/01 15:24:19;;;;;;;11.77;9.20;;;20.20;42.40;;;;;;5136700;27;20055;-11
2022/12/01 15:26:48;;;;;;;13.05;10.70;;;20.30;42.40;;;;;;5137048;27;20316;-12
2022/12/01 15:29:24;;;;;;;14.02;10.13;;;20.20;42.40;;;;;;5136644;27;20043;-12
2022/12/01 15:31:53;;;;;;;13.15;9.65;;;20.20;42.40;;;;;;5136641;27;20492;-11
2022/12/01 15:34:32;;;;;;;12.48;9.40;;;20.20;42.30;;;;;;5136690;27;20099;-11
2022/12/01 15:37:01;;;;;;;13.70;10.45;;;20.30;42.40;;;;;;5136526;27;20388;-11
2022/12/01 15:39:35;;;;;;;11.15;8.55;;;20.30;42.40;;;;;;5136417;27;20054;-12
2022/12/01 15:42:03;;;;;;;13.65;9.82;;;20.30;42.40;;;;;;5136531;27;20051;-12
2022/12/01 15:44:35;;;;;;;13.95;10.32;;;20.30;42.30;;;;;;5118062;28;20047;-11
2022/12/01 15:47:43;;;;;;;12.43;9.60;;;20.30;42.30;;;;;;5136810;27;20054;-11
2022/12/01 15:50:28;;;;;;;13.15;9.82;;;20.30;42.30;;;;;;5136148;27;20403;-11
2022/12/01 15:52:55;;;;;;;13.25;10.07;;;20.30;42.30;;;;;;5136326;27;20133;-12
2022/12/01 15:55:27;;;;;;;11.68;9.38;;;20.30;42.30;;;;;;5136353;27;20086;-11
2022/12/01 15:57:53;;;;;;;11.02;9.38;;;20.30;42.30;;;;;;5136035;27;20054;-12
2022/12/01 16:00:20;;;;;;;12.32;9.75;;;20.30;42.30;;;;;;5136197;27;20083;-12
2022/12/01 16:02:51;;;;;;;11.25;8.82;;;20.30;42.30;;;;;;5136276;27;20142;-11
2022/12/01 16:05:23;;;;;;;13.70;9.38;;;20.30;42.30;;;;;;5136376;27;20054;-12
2022/12/01 16:07:49;;;;;;;12.30;9.07;;;20.30;42.30;;;;;;5135834;27;20055;-12
2022/12/01 16:10:35;;;;;;;12.73;10.20;;;20.30;42.30;;;;;;5136109;27;20164;-11
2022/12/01 16:13:41;;;;;;;12.48;9.50;;;20.30;42.90;;;;;;5135792;27;20396;-11
2022/12/01 16:16:38;;;;;;;11.93;9.27;;;20.30;42.30;;;;;;5136327;27;20483;-11
2022/12/01 16:19:07;;;;;;;11.73;8.68;;;20.30;42.30;;;;;;5135473;27;20055;-12
2022/12/01 16:21:49;;;;;;;13.93;9.88;;;20.30;42.30;;;;;;5135945;27;20380;-11
2022/12/01 16:24:19;;;;;;;14.13;9.90;;;20.30;42.30;;;;;;5136275;27;20071;-11
2022/12/01 16:26:54;;;;;;;12.48;9.40;;;20.30;42.30;;;;;;5136404;27;20059;-11
2022/12/01 16:29:22;;;;;;;12.98;9.50;;;20.30;42.30;;;;;;5135436;27;20055;-12
2022/12/01 16:31:49;;;;;;;13.48;9.40;;;20.30;42.30;;;;;;5135506;27;20096;-11
2022/12/01 16:34:17;;;;;;;11.90;8.90;;;20.30;42.30;;;;;;5135696;27;20488;-12
2022/12/01 16:36:45;;;;;;;13.45;10.25;;;20.30;42.30;;;;;;5135508;27;20047;-11
2022/12/01 16:39:14;;;;;;;11.82;9.02;;;20.30;42.30;;;;;;5135825;27;20077;-11
2022/12/01 16:41:43;;;;;;;12.85;9.43;;;20.30;42.30;;;;;;5135537;27;20047;-11
2022/12/01 16:44:15;;;;;;;11.00;8.45;;;20.30;42.30;;;;;;5135470;27;20407;-11
2022/12/01 16:46:41;;;;;;;13.15;9.10;;;20.30;42.30;;;;;;5135534;27;20054;-12
2022/12/01 16:49:07;;;;;;;11.95;9.38;;;20.30;42.30;;;;;;5135770;27;20047;-11
2022/12/01 16:51:34;;;;;;;12.05;9.23;;;20.30;42.30;;;;;;5135421;27;20051;-11
2022/12/01 16:54:00;;;;;;;11.52;8.88;;;20.30;42.30;;;;;;5135336;27;20047;-11
2022/12/01 16:56:26;;;;;;;11.32;8.75;;;20.30;42.20;;;;;;5135450;27;20062;-12
2022/12/01 16:58:51;;;;;;;11.70;9.20;;;20.30;42.20;;;;;;5135144;27;20054;-11
2022/12/01 17:01:17;;;;;;;12.18;8.65;;;20.30;42.20;;;;;;5135393;27;20046;-11
2022/12/01 17:03:43;;;;;;;12.63;9.15;;;20.30;42.20;;;;;;5135291;27;20062;-11
2022/12/01 17:06:17;;;;;;;11.90;8.85;;;20.40;42.20;;;;;;5135089;27;20043;-12
2022/12/01 17:08:44;;;;;;;11.52;7.65;;;20.40;42.20;;;;;;5135104;27;20079;-12
2022/12/01 17:11:10;;;;;;;14.80;10.40;;;20.40;42.10;;;;;;5135419;27;20128;-11
2022/12/01 17:13:37;;;;;;;11.68;9.15;;;20.40;42.00;;;;;;5135425;27;20086;-11
2022/12/01 17:16:08;;;;;;;10.57;8.38;;;20.50;42.10;;;;;;5135027;27;20122;-12
2022/12/01 17:18:38;;;;;;;12.10;8.57;;;20.50;42.10;;;;;;5134832;27;20039;-9
2022/12/01 17:21:09;;;;;;;10.43;8.43;;;20.50;42.00;;;;;;5134840;27;20054;-9
2022/12/01 17:23:39;;;;;;;;;;;20.50;42.00;;;;;;5135276;27;20071;-9
2022/12/01 17:26:14;;;;;;;10.88;8.38;;;20.50;42.00;;;;;;5135083;27;19922;-9
2022/12/01 17:28:40;;;;;;;11.90;8.90;;;20.50;42.00;;;;;;5134811;27;20051;-9
2022/12/01 17:31:07;;;;;;;10.00;8.60;;;20.50;42.00;;;;;;5134839;27;20066;-9
2022/12/01 17:33:33;;;;;;;11.52;8.50;;;20.50;42.00;;;;;;5134784;27;20074;-9
2022/12/01 17:36:25;;;;;;;12.43;8.80;;;20.50;42.00;;;;;;5134735;27;20054;-9